Identifiez vous afin de poster une observation
 • Tableaux GEFS   

Tableaux GEFS de Températures 500hPa (°C)

Run GEFS du 19/05/2019 12Z - Choix du run : 00 - 06 - 12 - 18 Sauver tableau : Conserver cette image

Paramètres : [ Temp. 850hPa ] - [ Temp. 500hPa ] - [ Pression ] - [ Précip. ] - [ Temp. 2m ] - [ Z500 ] - [ CAPE ] -
[ Vent+Direction 10m ] - [ Vent 10m ] - [ Vent Rafales 10m ] - [ Vent+Direction 850hPa ] - [ Vent 850hPa ] - [ Iso 0 ] -
Tri des valeurs : [ Par scénario ] - [ Ascendant ] - [ Descendant ]

Localisation : 46.3N 6.4E

DateEch.01234567891011121314151617181920GFS
2019-05-19 12Z0-20.8-20.6-20.8-20.5-20.6-21.1-20.6-21-20.8-21-20.5-20.8-21-20.8-20.6-21-20.8-21.1-20.8-20.5-20.3-21.1
2019-05-19 15Z3-20.1-20-20-19.8-20.1-20.3-20-20.1-20.1-20.3-19.8-20-20.1-20.1-20-20.3-20.1-20.5-20.1-19.8-19.8-20.3
2019-05-19 18Z6-19.8-19.6-19.8-19.6-19.8-20.1-19.6-19.6-20-20.1-19.6-19.6-19.8-19.8-19.6-20.1-19.8-20.1-19.8-19.3-19.3-20.1
2019-05-19 21Z9-19.6-19.3-19.6-19.8-19.8-19.8-19.3-19.3-20-20.1-19.3-19.5-19.8-19.6-19.5-19.8-19.6-20-19.6-19.1-19.1-20
2019-05-20 00Z12-19.5-19.3-19.6-19.8-19.6-19.6-19.3-19.3-20-19.8-19.5-19.5-19.8-19.6-19.6-19.6-19.8-19.8-19.5-19.3-19.1-20.1
2019-05-20 03Z15-19.6-19.3-19.6-19.8-19.8-19.6-19.3-19.6-19.8-20.1-19.6-19.3-19.5-19.8-19.6-19.6-19.8-19.6-19.6-19.1-19.1-20.2
2019-05-20 06Z18-19.5-18.8-19.3-19.8-19.3-19.6-19.1-19.5-19.6-19.8-19.3-19.5-19.6-19.6-19.5-19.6-19.5-19.5-19.5-19-18.8-20
2019-05-20 09Z21-19.1-18.6-19.3-19.6-19.3-19.1-18.8-19.3-19.5-19.5-19.3-19.1-19.3-19.5-19.3-19.3-19.1-19.5-19.1-18.8-18.6-19.8
2019-05-20 12Z24-19.1-19.1-19.1-19.3-19.5-19.1-18.8-19-19.6-19.5-19.1-18.8-19.3-19.1-19.1-19.1-19.3-19.6-19.1-18.6-19-19.6
2019-05-20 15Z27-18.6-18.5-18.8-18.6-19.1-18.8-18.3-18.5-19.1-19.3-18.8-18.8-18.8-19-18.8-18.6-19-19.3-18.6-18.3-18.6-19.2
2019-05-20 18Z30-18.3-18.3-18.6-18.5-18.5-18.6-18.1-18.3-19-19.1-18.3-18.3-18.3-18.6-18.5-18.5-19-19-18.6-18-18.5-18.6
2019-05-20 21Z33-18.1-18-18.1-18.1-18.3-18.3-17.6-18-18.6-18.8-18-17.6-17.8-18.3-18.3-18.3-18.5-18.8-18.1-17.6-17.8-18.4
2019-05-21 00Z36-17.8-17.8-18.1-17.6-18.1-18.5-17.3-17.6-18.3-19-17.3-17.5-18.1-18.1-17.8-18-17.8-18.3-17.8-17.3-17.6-18
2019-05-21 03Z39-17.8-18.1-18-17.8-18.3-18.6-17.5-17.6-18.3-19.5-17.3-17.5-18.6-18.1-17.6-18-17.6-18.3-17.6-17.3-17.8-17.9
2019-05-21 06Z42-18.1-18.6-18.1-18.6-18.5-18.8-17.8-18-18.6-19.8-17.3-17.6-19-18.6-17.6-18.3-18-18.5-18.1-17.5-18-18
2019-05-21 09Z45-18.3-18.8-18.3-18.8-18.8-19.1-18.1-18.1-18.8-20-17.3-17.5-19.3-18.8-17.8-18.6-18.3-18.8-18.3-17.6-18.3-18.3
2019-05-21 12Z48-18.6-19.1-18.6-18.8-18.8-19.3-18.3-18.1-19.3-20-17.3-17.6-19.3-19-17.8-18.6-18.5-19.1-18.3-17.6-18.6-18.3
2019-05-21 15Z51-18.8-19.1-18.6-19.1-19.1-19.5-18.6-18.5-19.3-20.1-17.6-17.8-19.6-19.3-17.8-18.8-18.6-19.5-18.3-17.8-18.6-18.5
2019-05-21 18Z54-18.8-19.6-18.8-19.3-19.3-19.6-18.6-18.8-19.5-20.6-17.6-18-20-19.5-17.8-18.8-18.8-19.6-18.3-18.1-18.6-18.7
2019-05-21 21Z57-18.8-19.8-18.6-19.6-19.8-19.8-18.3-18.8-19.6-20.6-17.6-18-20.3-19.6-17.5-18.6-19.5-19.5-18.3-18-18.8-18.8
2019-05-22 00Z60-18.8-20-18.6-19.6-20.1-19.8-18.1-18.8-19.3-20.6-17.6-18-20.3-19.1-17.5-18.3-20.1-19.3-18.5-17.8-18.6-18.9
2019-05-22 03Z63-18.8-19.8-18.5-19.6-20.1-19.6-18.6-19-19.1-20.6-18-18.1-20.3-19.1-17.6-18.6-20.3-19.1-18.6-18-18.6-18.9
2019-05-22 06Z66-19.1-19.8-18.5-19.6-20.1-19.3-18.5-19-19.1-20.6-18-18.1-20.1-19-17.8-18.6-20.5-18.8-18.6-17.8-18.8-18.9
2019-05-22 09Z69-18.8-19.3-18.3-19.1-19.6-18.8-18.1-18.8-18.8-20.3-17.6-18-19.8-18.8-17.6-18.6-20.3-18.8-18.6-17.8-18.6-18.7
2019-05-22 12Z72-18.3-18.8-18.1-18.8-19.1-18.3-17.6-18.8-18.6-19.6-17.6-17.6-19.6-18.5-17.6-18.5-20.1-18.3-18.3-17.6-18.3-18.4
2019-05-22 15Z75-18.1-18.3-17.8-18.5-18.8-18-17.1-18.6-18.1-19.1-17.3-17.3-19.1-18.3-17.3-18.6-19.6-18.1-18.1-17.3-18-18.2
2019-05-22 18Z78-17.6-17.6-17.3-18.1-18.3-18-16.6-18.5-18.1-18.6-16.8-17-18.3-17.8-17.1-18.5-19.5-18.3-17.8-17.1-18-18
2019-05-22 21Z81-17.6-17.5-17.3-18.1-17.8-17.6-16.2-18-17.8-18.5-16.5-16.7-18.1-17.3-16.8-18.1-19.3-18.3-17.8-17.1-18.3-17.8
2019-05-23 00Z84-17.6-17.5-17.3-18.1-17.5-17.5-16.2-17.6-17.3-18.3-16.2-16.7-17.8-17.3-16.2-18.3-18.5-18.3-17.8-16.8-18.1-17.9
2019-05-23 03Z87-17.6-17.3-17.3-18.3-17.3-17.3-15.7-17.8-17-18.5-15.8-16.7-17.8-17.8-16.2-18.1-17.5-18.5-17.6-16.3-18-18.2
2019-05-23 06Z90-17-16.6-17.1-18.1-16.2-17.1-15.2-17.5-17-18.6-15.8-16.5-17.6-17.6-16.2-17.6-17.1-17.6-17.3-15.8-17.6-18
2019-05-23 09Z93-16.7-16-16.7-18-15.7-16.7-14.7-17.1-16.7-18.1-15.2-16.5-17.3-17.1-15.8-17.3-16.8-16.7-17.3-15.7-17.3-17.5
2019-05-23 12Z96-16.5-15.8-16.2-17.6-15.6-16-14.7-16.8-16.7-17.8-15.2-16.6-16.7-16.6-15.5-16.7-17.1-15.8-17.1-15.7-16.8-17.1
2019-05-23 15Z99-16-16-16.2-17-15.7-15.3-14.4-16.7-16.5-17.6-15.3-16.6-16-16.2-14.8-16.5-16.8-15.5-16.8-15.2-16.2-16.5
2019-05-23 18Z102-15.5-15.6-15.8-16.5-15.7-15-14.2-16.6-16-17.3-15.2-16.7-15.3-15.5-14.2-16.3-17.3-15.3-16.7-15.1-16-16.1
2019-05-23 21Z105-15.1-15.2-15.7-15.8-15.6-14.8-14.2-16.6-16-16.7-15.2-16.2-15-15.6-14.1-16.1-18-15.3-16.8-15.1-15.7-15.6
2019-05-24 00Z108-15.2-15.7-15.7-16.1-16.2-15.1-14.3-16.2-15.8-16.6-15.1-16.3-15-16.1-14.3-16.1-18.6-15.2-16.7-15.1-15.6-15.7
2019-05-24 03Z111-15.2-16.1-15.5-15.7-16.3-15.1-14.7-15.8-15.8-16.3-15.2-16.5-14.7-16.1-14.7-15.7-18.5-15.3-17.1-15.3-16.2-16
2019-05-24 06Z114-15.2-16.3-15.7-15.8-16.8-15.6-14.3-15.6-16-15.3-15.7-16.3-15.1-16.2-15.1-15.8-18.6-14.8-17-15.8-15.7-16
2019-05-24 09Z117-15-17.3-15.6-15.2-16.3-14.8-14.8-15.2-16.2-15.2-16.2-15.7-14.7-15.7-15.3-15.2-18.5-15.6-17.6-16.2-15.5-16.1
2019-05-24 12Z120-15.2-17.5-15.8-15.7-15.2-15.7-15.7-15.6-16.2-15-17.1-15.6-15-15.3-15.8-15.7-18.1-15.2-18.1-17.3-15.7-16.2
2019-05-24 15Z123-15.6-17-16.2-16.2-15.6-15.8-16.7-15.7-16.2-14.5-18.1-14.8-15.3-15.2-16.7-15.7-18-15.2-18.1-15.8-15.7-17
2019-05-24 18Z126-15.8-16.7-16.6-15.8-15.7-15-16.2-15.7-16.1-15.1-17.8-14.2-14.7-15.5-17.3-15.2-17.6-16.1-18-15.7-15.6-17.4
2019-05-24 21Z129-15.6-16.7-17.1-16.5-16.5-14.2-16.5-15.2-15.7-15.3-17.6-12.2-13.7-15.8-17.8-15.1-17.6-16.8-19.8-15.5-15.6-17.6
2019-05-25 00Z132-15.7-16.3-17.1-16.7-18.6-12.7-16-14.5-16.2-15.2-17.3-13.2-13.8-17.8-18.5-14.2-17.8-18-20.6-15.1-15.5-19.2
2019-05-25 03Z135-15.6-16.8-15.8-18.3-21-12.7-16.1-13.7-16.8-14.6-16.7-13.5-13.8-18.6-18.5-14.6-17.3-19-21.1-14.1-15.2-21.6
2019-05-25 06Z138-15.1-18.1-15.8-19.6-20.8-13.1-15.5-12.5-17.1-16.2-16.2-13.6-13.2-16.7-18.6-15.7-17.3-19.8-20.8-13.2-13-22.8
2019-05-25 09Z141-14.2-20.5-16.6-20.8-20-11.7-14.8-12.2-18.1-18.8-15.7-11.8-12.2-18.3-18.1-17.5-17.1-20.8-19.8-12.7-13.2-21.8
2019-05-25 12Z144-14-21.8-17.3-20.5-17.8-11.2-15.7-12.7-17.5-22.6-15-10.7-11.7-18.3-17-18.8-16.7-19.6-18.5-13-13.8-20.8
2019-05-25 15Z147-13.7-20.8-16.5-20.8-17.6-10.8-15.7-12.1-16.3-22.6-13.2-10.3-11.7-17.8-17.5-19.5-16.1-19.3-17.8-12.5-12.6-20.8
2019-05-25 18Z150-14-18.8-16.7-22.1-17.6-11.7-14.7-13.7-15.8-22.1-12.7-10-11.3-19-17.5-20.3-15.6-22.3-17.6-11.3-11.7-21.1
2019-05-25 21Z153-13.3-18.4-18.3-23.3-16.5-12.2-12.5-14.7-15.5-21.3-12.1-11.2-10.3-20.3-16.8-20.8-15.1-22-17.8-10.8-11.8-16.4
2019-05-26 00Z156-13.2-18.1-17-23.8-14.6-12-11.2-16-16.5-16.8-11.5-11.1-10.2-22.1-16.6-23.1-15.7-21.1-18.3-10.7-12-15.9
2019-05-26 03Z159-12.5-17.5-14.6-23.8-13.7-12.7-11.3-18.8-14.7-14.2-12.2-10.6-10.8-22.5-15.3-26.8-15.8-20.6-18.6-10.1-12.7-15.5
2019-05-26 06Z162-12.7-17.1-14.5-24.6-13.6-13.1-11.7-19.1-13-13.5-12.5-10.7-11.2-23.5-14.2-22.5-15-21.3-19.1-10.6-12.2-15.5
2019-05-26 09Z165-11.8-16.7-13.8-24.3-13.8-12.7-11.6-18.3-12.6-12.7-12-10.8-11.7-24.5-12.7-19.3-14.2-21.3-18.8-11.2-12-14.8
2019-05-26 12Z168-12.1-16.2-13.7-25-13.7-11.8-12.6-18-12-12-11.7-10.6-12.7-24.1-12.1-18.6-14-21.5-19-11.7-12.7-13.9
2019-05-26 15Z171-12.2-15.2-14.2-24.3-12.2-11.2-13-17.6-10.8-12-11.5-11.1-13.7-23.6-12.1-19.8-13.8-21.5-18.5-12-13.7-13.1
2019-05-26 18Z174-12-14.7-13.7-23.6-12-11.1-13.2-16-10.7-12-11.7-11.2-14.7-23.5-11.8-20.1-14.2-21.5-18.1-12.1-14.6-12.6
2019-05-26 21Z177-12.7-14.6-13.3-21.8-12.5-11.8-13.1-13.2-10.7-13.2-11.6-11.2-16-22.6-12.1-19.5-14.1-20.8-17.6-12.3-15.8-12.6
2019-05-27 00Z180-13.3-14.2-13.6-20.5-12.5-12.5-12.7-12.5-11.6-13.2-11-11.5-17.3-21.8-12.6-18.3-14.2-20.8-16.6-12.7-17.3-12.5
2019-05-27 03Z183-14.1-14.3-13.2-18.5-12.3-12.5-14.2-14-11.6-13.2-12.2-11.7-18.8-20.8-13.7-17.3-15.2-20.3-16-13-18.6-12.6
2019-05-27 06Z186-13.7-13.7-13.1-17.3-12.6-12-15.5-13.5-12-14.8-13.2-12.3-19.8-20.5-14.2-17.3-15.6-19.1-16.2-13.5-19-12.6
2019-05-27 09Z189-13.7-14.3-12.7-16.3-13.2-11.7-15.2-13.7-11.8-16.2-14-13.2-20.1-19.1-14.5-15.5-15.6-17.8-15.8-13.5-17.8-12.2
2019-05-27 12Z192-13.8-15-13.2-15.7-13.7-12-14.7-14.8-12.2-17.5-15-13.1-20.5-18.6-14.3-15.1-15.2-17.3-16-13.5-16.6-12.2
2019-05-27 18Z198-15.1-15.1-13.5-14.2-13.7-12.3-13.6-17.8-12.2-18.3-17.1-13.7-20.1-18.3-14.2-14.3-14-15.2-14.5-13.1-16.2-11.8
2019-05-28 00Z204-16.7-13.8-13.3-13.5-14.2-13-14.1-17.3-12.2-20.8-17.3-14.6-21.8-17.6-14.6-14.6-14.6-13.7-14.1-13.3-15.7-12.4
2019-05-28 06Z210-18.3-14.6-14.1-12.6-15-13.6-14.8-14.1-12.2-20.8-18.3-14.8-23.8-16.6-15.5-14.2-14.5-13.7-14.8-13.7-15.3-13.1
2019-05-28 12Z216-17.8-15.2-14-11.8-14.8-13.5-15.2-14.8-12.1-21.1-20.1-14.3-25.6-16.7-14.5-13.8-14.5-15.6-13.2-14.7-14.6-13.5
2019-05-28 18Z222-18.8-16.3-13.3-11.5-15-13.7-14.6-14.5-12.5-19-23.8-13.3-27.3-16.7-13.6-13.5-15.3-15.8-13.2-14.5-15.1-14.3
2019-05-29 00Z228-22.3-16.6-13.2-11.8-14.2-14.5-14.5-15.2-13.8-15.5-25.8-11.5-29.3-15.7-13.7-13.1-15.5-15.7-13.2-13.2-14.5-14.1
2019-05-29 06Z234-23.3-16.3-14-12.4-14.3-15.2-15.6-17.8-14.3-15.7-25.8-13.2-31.1-14-14-13.7-15.4-16.8-14.2-13.3-14.8-15.8
2019-05-29 12Z240-24.6-14.2-13.3-12.5-15.7-16.2-16.3-22.5-13.6-15.6-24.6-13.1-30-12.8-14.8-13.3-16.2-16.3-14.3-12.3-15-16.1
2019-05-29 18Z246-24.6-15-13.6-13.3-15.6-15.7-16.6-14.6-13.5-13.7-23.1-12.2-29.1-12.7-14.5-12.6-16.7-19.3-14.3-12.7-14
2019-05-30 00Z252-22.3-12.7-13.7-14.6-16.8-15.8-16.5-16.2-13.5-13.5-21.6-12.8-28-13-14.5-13.3-18.1-19.8-14.7-12.8-14.7-17.9
2019-05-30 06Z258-19.3-13.3-13.6-14.8-21.1-17.1-17.3-18.1-13.8-13.6-22.3-12.8-26.3-13.7-14.7-14.2-20.6-23-15.5-13.2-15.3
2019-05-30 12Z264-19.3-12.2-12.8-14.6-20.6-17.6-18.3-16.8-14.8-14.1-21.1-12.5-25.3-13.2-14.7-14.2-22.5-20.6-15.8-13.2-13.3-19.2
2019-05-30 18Z270-19.5-11-12.3-14.5-15.7-17.1-19-16.7-14.2-14.5-19-12.5-21.8-12.7-14.8-13.5-23.3-19.8-15.3-13.7-13.5
2019-05-31 00Z276-19-11.7-12.5-14.6-16.2-17.5-19.5-17-15.5-14.7-15.7-12.7-21.3-13.6-15-12.8-21.8-19.6-15.2-14.2-13.3-17.9
2019-05-31 06Z282-19.6-11.7-13.5-15.3-18.3-17.8-18.6-21.1-15.7-14.6-17.3-13.1-21.3-14.5-15.1-12.2-19.1-19.8-15.7-13.8-13.1
2019-05-31 12Z288-20-11-13.7-15.5-21.8-17.3-18.3-23.3-15.2-14.2-18.3-12.2-20.8-14.7-14.7-12.5-19.8-19.3-15.1-14-12.3-17.3
2019-05-31 18Z294-19-10.8-14.2-15.7-23.8-15.3-18.8-26.8-14.5-13.2-17.3-12.2-19.3-14.7-14.5-12.7-19-18.3-15.7-13.7-11.7
2019-06-01 00Z300-20.6-11.3-14.1-16.6-22.8-16.2-18.6-27-13.2-13.2-15.6-12.6-18.1-15.2-14.2-12.6-18.5-18-15.8-14.2-12.3-15.4
2019-06-01 06Z306-22.1-12-14-17.1-23.5-16-17.8-26.1-16.5-13.5-15.7-13.2-17.3-15.7-13.8-12.7-18.5-17.5-15.3-13.7-12.6
2019-06-01 12Z312-17-12.5-13.3-17.1-23.6-13.7-17.3-26.5-15.8-13.7-15.1-12.6-16.6-14.8-13.5-11.8-18-14.7-14.6-13.7-12.1-15.3
2019-06-01 18Z318-16.1-12.8-12.7-17.3-23.6-12.2-17.3-25.6-14.7-13.7-14.6-12.8-16.1-14.8-13.1-12.2-17.3-13.2-13.1-14.1-12.2
2019-06-02 00Z324-15.8-13.2-12.7-17.3-21.6-13.3-17.3-25.3-15.6-13.7-14.7-12-15.8-15.1-13.7-12.6-19.1-12.8-11.1-16.1-12.3-15.7
2019-06-02 06Z330-15-13.7-13.2-18.3-17.3-13.7-16.3-26.6-15.7-13.7-14.3-11.7-17-15.2-14-13.2-21.1-14.2-11.5-19.3-12.3
2019-06-02 12Z336-14.5-14.6-13.7-18.8-17.3-13.3-15.8-25-15.7-13.7-13.7-11-17.6-14.8-13.7-13.2-18.8-13.3-12.1-18.3-12.2-18.7
2019-06-02 18Z342-14.7-15.7-14.3-19.1-16.6-13.7-15.2-22-14.7-13.7-13.1-11.2-18.1-14-13-13.3-20.8-13.2-12.6-14.3-12.1
2019-06-03 00Z348-14.3-15.2-15.7-18.8-15.1-13.7-15-20.8-14.7-13.7-14.7-12-19.1-13.3-12.8-13.7-21.3-13.2-13.7-14.7-12.2-20.7
2019-06-03 06Z354-14.3-16.1-17.1-18.1-14.8-13.7-15.3-20.5-14.8-13.6-15.2-12.8-20.8-14-12.7-14.2-21.3-14.2-13.3-14.3-12.2
2019-06-03 12Z360-13.5-13.8-19-18.3-13.8-13.3-14.8-19.6-14.2-14-14.8-13.5-22.8-12.7-11.5-13.7-21.6-13.8-12.6-13.7-11.5-19.4
2019-06-03 18Z366-14.7-12.7-19.8-16.8-13.8-13.8-14.2-18.3-14.2-13.6-14.1-13.2-22.1-11.7-11.1-13.3-22-14.1-12-12.8-12
2019-06-04 00Z372-15.6-13.1-15.6-16.8-15-14.2-14.5-15.5-14.7-13.2-13.3-14.2-21.5-11.7-12.1-13.3-22.1-14.7-12.1-13.2-11.7-18.7
2019-06-04 06Z378-17.6-12.8-15.7-16.7-14.1-15-14.6-15.2-14.2-13.2-14-13.6-21.1-12.6-11.2-14.1-22.3-12.8-12.5-13.5-12.2
2019-06-04 12Z384-19-12.6-15.7-16.2-13.2-15-14.3-15-13.5-12.8-13.7-13.7-20.3-11.8-11.6-13.7-21.8-12.3-12.7-13.6-12.5-18

Retour à la carte

meteociel.fr™ | © 2004 - 2019 | Forums Météo | Prévi Paris | Liens météo | Média - Meteociel | Mentions légales | Contact
En poursuivant votre navigation sur Meteociel, vous acceptez l'utilisation des cookies. Ils assurent le bon fonctionnement de nos services. [ En savoir plus ] [ OK ]